createdAt,value
2023-09-08T00:01:18.109Z,18.62
2023-09-08T00:03:49.958Z,18.64
2023-09-08T00:06:21.879Z,18.65
2023-09-08T00:08:52.836Z,18.62
2023-09-08T00:11:23.149Z,18.62
2023-09-08T00:13:53.656Z,18.62
2023-09-08T00:16:24.596Z,18.61
2023-09-08T00:18:56.057Z,18.61
2023-09-08T00:21:27.915Z,18.62
2023-09-08T00:23:59.961Z,18.62
2023-09-08T00:26:30.240Z,18.61
2023-09-08T00:29:01.029Z,18.61
2023-09-08T00:31:33.083Z,18.62
2023-09-08T00:34:05.026Z,18.61
2023-09-08T00:36:36.788Z,18.65
2023-09-08T00:39:08.039Z,18.62
2023-09-08T00:41:39.845Z,18.65
2023-09-08T00:44:11.535Z,18.62
2023-09-08T00:46:43.928Z,18.62
2023-09-08T00:49:14.781Z,18.61
2023-09-08T00:51:46.075Z,18.61
2023-09-08T00:54:18.813Z,18.64
2023-09-08T00:56:51.531Z,18.65
2023-09-08T00:59:23.537Z,18.64
2023-09-08T01:01:54.333Z,18.64
2023-09-08T01:04:24.880Z,18.68
2023-09-08T01:06:56.275Z,18.65
2023-09-08T01:09:27.551Z,18.62
2023-09-08T01:12:03.395Z,18.64
2023-09-08T01:14:35.806Z,18.61
2023-09-08T01:17:07.478Z,18.62
2023-09-08T01:19:38.206Z,18.59
2023-09-08T01:22:24.685Z,18.58
2023-09-08T01:25:25.437Z,18.61
2023-09-08T01:27:58.972Z,18.61
2023-09-08T01:30:32.205Z,18.58
2023-09-08T01:33:03.964Z,18.58
2023-09-08T01:35:35.797Z,18.55
2023-09-08T01:38:06.535Z,18.54
2023-09-08T01:40:37.386Z,18.52
2023-09-08T01:43:08.698Z,18.49
2023-09-08T01:45:40.453Z,18.49
2023-09-08T01:48:10.856Z,18.47
2023-09-08T01:50:41.669Z,18.48
2023-09-08T01:53:12.300Z,18.47
2023-09-08T01:55:44.230Z,18.47
2023-09-08T01:58:15.477Z,18.44
2023-09-08T02:00:45.982Z,18.45
2023-09-08T02:03:16.758Z,18.47
2023-09-08T02:05:48.750Z,18.45
2023-09-08T02:08:19.391Z,18.45
2023-09-08T02:10:49.692Z,18.47
2023-09-08T02:13:20.986Z,18.45
2023-09-08T02:15:52.608Z,18.45
2023-09-08T02:18:22.956Z,18.47
2023-09-08T02:20:53.269Z,18.48
2023-09-08T02:23:24.028Z,18.47
2023-09-08T02:25:54.481Z,18.48
2023-09-08T02:28:25.142Z,18.49
2023-09-08T02:30:57.615Z,18.54
2023-09-08T02:33:31.221Z,18.52
2023-09-08T02:36:10.761Z,18.52
2023-09-08T02:38:43.434Z,18.54
2023-09-08T02:41:14.157Z,18.55
2023-09-08T02:43:44.569Z,18.57
2023-09-08T02:46:15.705Z,18.52
2023-09-08T02:48:47.352Z,18.51
2023-09-08T02:51:18.817Z,18.47
2023-09-08T02:53:49.410Z,18.48
2023-09-08T02:56:20.633Z,18.45
2023-09-08T02:58:51.217Z,18.44
2023-09-08T03:01:25.802Z,18.43
2023-09-08T03:03:57.325Z,18.40
2023-09-08T03:06:28.798Z,18.41
2023-09-08T03:09:01.277Z,18.44
2023-09-08T03:11:33.040Z,18.41
2023-09-08T03:14:03.790Z,18.41
2023-09-08T03:16:34.554Z,18.38
2023-09-08T03:19:04.927Z,18.40
2023-09-08T03:21:36.160Z,18.41
2023-09-08T03:24:09.486Z,18.37
2023-09-08T03:26:42.392Z,18.40
2023-09-08T03:29:13.464Z,18.36
2023-09-08T03:31:44.742Z,18.33
2023-09-08T03:34:17.336Z,18.31
2023-09-08T03:36:49.427Z,18.27
2023-09-08T03:39:22.821Z,18.27
2023-09-08T03:41:53.783Z,18.23
2023-09-08T03:44:25.565Z,18.26
2023-09-08T03:46:57.778Z,18.26
2023-09-08T03:49:28.197Z,18.27
2023-09-08T03:51:58.211Z,18.28
2023-09-08T03:54:30.088Z,18.31
2023-09-08T03:57:00.588Z,18.31
2023-09-08T03:59:32.495Z,18.30
2023-09-08T04:02:04.490Z,18.34
2023-09-08T04:04:34.945Z,18.33
2023-09-08T04:07:05.786Z,18.33
2023-09-08T04:09:36.078Z,18.34
2023-09-08T04:12:08.249Z,18.34
2023-09-08T04:14:39.193Z,18.33
2023-09-08T04:17:10.696Z,18.34
2023-09-08T04:19:41.339Z,18.38
2023-09-08T04:22:12.659Z,18.41
2023-09-08T04:24:43.118Z,18.41
2023-09-08T04:27:15.729Z,18.36
2023-09-08T04:29:46.403Z,18.30
2023-09-08T04:32:16.711Z,18.23
2023-09-08T04:34:47.535Z,18.24
2023-09-08T04:37:19.384Z,18.24
2023-09-08T04:39:49.921Z,18.21
2023-09-08T04:42:20.295Z,18.20
2023-09-08T04:44:50.835Z,18.17
2023-09-08T04:47:21.272Z,18.18
2023-09-08T04:49:52.531Z,18.17
2023-09-08T04:52:23.266Z,18.16
2023-09-08T04:54:53.840Z,18.16
2023-09-08T04:57:24.385Z,18.16
2023-09-08T04:59:59.570Z,18.26
2023-09-08T05:02:30.795Z,18.20
2023-09-08T05:05:03.193Z,18.17
2023-09-08T05:07:34.552Z,18.18
2023-09-08T05:10:05.551Z,18.16
2023-09-08T05:12:38.371Z,18.17
2023-09-08T05:15:13.919Z,18.13
2023-09-08T05:17:46.382Z,18.14
2023-09-08T05:20:17.962Z,18.16
2023-09-08T05:22:49.426Z,18.14
2023-09-08T05:25:21.755Z,18.20
2023-09-08T05:27:52.559Z,18.18
2023-09-08T05:30:23.983Z,18.20
2023-09-08T05:32:54.866Z,18.17
2023-09-08T05:35:25.412Z,18.11
2023-09-08T05:37:55.441Z,18.10
2023-09-08T05:40:27.012Z,18.11
2023-09-08T05:42:57.509Z,18.11
2023-09-08T05:45:28.311Z,18.11
2023-09-08T05:47:59.923Z,18.11
2023-09-08T05:50:31.606Z,18.07
2023-09-08T05:53:02.752Z,18.08
2023-09-08T05:55:32.899Z,18.13
2023-09-08T05:58:03.529Z,18.16
2023-09-08T06:00:33.838Z,18.17
2023-09-08T06:03:05.014Z,18.11
2023-09-08T06:05:36.708Z,18.08
2023-09-08T06:08:08.903Z,18.03
2023-09-08T06:10:43.181Z,17.97
2023-09-08T06:13:13.792Z,17.98
2023-09-08T06:15:46.684Z,17.94
2023-09-08T06:18:17.373Z,17.90
2023-09-08T06:20:49.844Z,17.94
2023-09-08T06:23:24.682Z,17.98
2023-09-08T06:26:02.831Z,17.94
2023-09-08T06:28:36.840Z,17.89
2023-09-08T06:31:07.718Z,17.97
2023-09-08T06:33:40.070Z,18.01
2023-09-08T06:36:10.588Z,17.96
2023-09-08T06:38:40.981Z,17.94
2023-09-08T06:41:16.352Z,17.97
2023-09-08T06:43:47.794Z,17.98
2023-09-08T06:46:24.127Z,17.97
2023-09-08T06:48:54.817Z,17.94
2023-09-08T06:51:24.926Z,17.98
2023-09-08T06:53:59.718Z,17.94
2023-09-08T06:56:35.910Z,17.91
2023-09-08T06:59:06.722Z,17.96
2023-09-08T07:01:38.153Z,17.96
2023-09-08T07:04:10.602Z,17.96
2023-09-08T07:06:44.306Z,17.94
2023-09-08T07:09:16.678Z,17.94
2023-09-08T07:11:47.399Z,18.00
2023-09-08T07:14:17.793Z,18.01
2023-09-08T07:16:47.909Z,17.98
2023-09-08T07:19:18.700Z,17.96
2023-09-08T07:21:49.134Z,17.93
2023-09-08T07:24:19.762Z,17.91
2023-09-08T07:26:50.166Z,17.94
2023-09-08T07:29:21.090Z,17.96
2023-09-08T07:31:52.694Z,17.94
2023-09-08T07:34:24.235Z,17.96
2023-09-08T07:36:54.687Z,17.94
2023-09-08T07:39:25.000Z,17.93
2023-09-08T07:41:56.080Z,17.91
2023-09-08T07:44:26.888Z,17.89
2023-09-08T07:46:59.090Z,17.86
2023-09-08T07:49:29.612Z,17.89
2023-09-08T07:52:02.998Z,17.87
2023-09-08T07:54:33.976Z,17.89
2023-09-08T07:57:05.537Z,17.89
2023-09-08T07:59:38.088Z,17.86
2023-09-08T08:02:09.719Z,17.85
2023-09-08T08:04:40.546Z,17.82
2023-09-08T08:07:10.793Z,17.82
2023-09-08T08:09:41.723Z,17.79
2023-09-08T08:12:11.978Z,17.77
2023-09-08T08:14:43.138Z,17.73
2023-09-08T08:17:13.888Z,17.75
2023-09-08T08:19:47.734Z,17.75
2023-09-08T08:22:18.156Z,17.75
2023-09-08T08:24:49.355Z,17.73
2023-09-08T08:27:19.816Z,17.75
2023-09-08T08:29:50.011Z,17.75
2023-09-08T08:32:20.817Z,17.72
2023-09-08T08:34:51.413Z,17.70
2023-09-08T08:37:22.239Z,17.70
2023-09-08T08:39:53.532Z,17.70
2023-09-08T08:42:25.213Z,17.70
2023-09-08T08:44:55.747Z,17.67
2023-09-08T08:47:27.828Z,17.69
2023-09-08T08:50:03.487Z,17.66
2023-09-08T08:52:33.966Z,17.67
2023-09-08T08:55:04.531Z,17.63
2023-09-08T08:57:36.056Z,17.65
2023-09-08T09:00:15.504Z,17.65
2023-09-08T09:02:53.588Z,17.66
2023-09-08T09:05:31.465Z,17.67
2023-09-08T09:08:06.519Z,17.66
2023-09-08T09:10:37.712Z,17.65
2023-09-08T09:13:08.124Z,17.62
2023-09-08T09:15:39.451Z,17.66
2023-09-08T09:18:10.857Z,17.62
2023-09-08T09:20:43.847Z,17.65
2023-09-08T09:23:17.748Z,17.67
2023-09-08T09:25:48.423Z,17.66
2023-09-08T09:28:19.569Z,17.67
2023-09-08T09:30:53.698Z,17.69
2023-09-08T09:33:25.317Z,17.73
2023-09-08T09:35:57.473Z,17.76
2023-09-08T09:38:30.003Z,17.79
2023-09-08T09:41:01.099Z,17.79
2023-09-08T09:43:32.469Z,17.77
2023-09-08T09:46:03.147Z,17.80
2023-09-08T09:48:34.387Z,17.83
2023-09-08T09:51:22.237Z,17.86
2023-09-08T09:53:57.594Z,17.90
2023-09-08T09:56:29.266Z,17.94
2023-09-08T09:59:00.251Z,17.96
2023-09-08T10:01:32.379Z,18.01
2023-09-08T10:04:06.023Z,18.03
2023-09-08T10:06:43.180Z,18.08
2023-09-08T10:09:19.253Z,18.11
2023-09-08T10:11:55.606Z,18.18
2023-09-08T10:14:29.663Z,18.23
2023-09-08T10:17:04.025Z,18.30
2023-09-08T10:19:39.108Z,18.40
2023-09-08T10:22:15.234Z,18.45
2023-09-08T10:24:49.500Z,18.52
2023-09-08T10:27:23.586Z,18.59
2023-09-08T10:29:54.876Z,18.67
2023-09-08T10:32:25.541Z,18.62
2023-09-08T10:34:56.748Z,18.52
2023-09-08T10:37:33.056Z,18.52
2023-09-08T10:40:39.619Z,18.52
2023-09-08T10:43:10.352Z,18.64
2023-09-08T10:45:43.849Z,18.64
2023-09-08T10:48:15.906Z,18.75
2023-09-08T10:50:48.245Z,18.84
2023-09-08T10:53:22.967Z,18.94
2023-09-08T10:58:41.057Z,19.19
2023-09-08T11:01:18.368Z,19.16
2023-09-08T11:03:52.749Z,19.06
2023-09-08T11:06:24.964Z,19.05
2023-09-08T11:08:57.867Z,19.03
2023-09-08T11:11:29.180Z,19.12
2023-09-08T11:14:02.154Z,19.22
2023-09-08T11:16:35.765Z,19.27
2023-09-08T11:19:08.843Z,19.20
2023-09-08T11:21:42.318Z,19.18
2023-09-08T11:24:17.070Z,19.22
2023-09-08T11:26:49.630Z,19.27
2023-09-08T11:29:21.483Z,19.26
2023-09-08T11:31:57.158Z,19.13
2023-09-08T11:34:27.860Z,19.03
2023-09-08T11:36:59.747Z,19.03
2023-09-08T11:39:30.714Z,18.95
2023-09-08T11:42:03.707Z,18.94
2023-09-08T11:44:36.219Z,18.94
2023-09-08T11:47:11.609Z,18.91
2023-09-08T11:49:44.044Z,18.92
2023-09-08T11:52:14.400Z,18.95
2023-09-08T11:55:00.199Z,18.96
2023-09-08T11:57:37.094Z,19.00
2023-09-08T12:00:09.656Z,19.00
2023-09-08T12:02:41.336Z,19.02
2023-09-08T12:05:16.692Z,19.06
2023-09-08T12:07:47.620Z,19.10
2023-09-08T12:10:17.786Z,19.13
2023-09-08T12:12:59.434Z,19.20
2023-09-08T12:15:48.290Z,19.36
2023-09-08T12:18:21.053Z,19.36
2023-09-08T12:21:11.324Z,19.42
2023-09-08T12:24:00.052Z,19.50
2023-09-08T12:26:33.432Z,19.52
2023-09-08T12:29:07.262Z,19.64
2023-09-08T12:31:38.056Z,19.75
2023-09-08T12:34:11.671Z,19.81
2023-09-08T12:36:48.817Z,19.88
2023-09-08T12:39:19.187Z,19.90
2023-09-08T12:41:49.128Z,19.97
2023-09-08T12:44:20.194Z,20.05
2023-09-08T12:46:50.345Z,20.10
2023-09-08T12:49:21.204Z,20.18
2023-09-08T12:51:51.488Z,20.25
2023-09-08T12:54:21.736Z,20.45
2023-09-08T12:56:53.501Z,20.49
2023-09-08T12:59:24.025Z,20.65
2023-09-08T13:01:54.259Z,20.66
2023-09-08T13:04:25.411Z,20.64
2023-09-08T13:06:55.721Z,20.72
2023-09-08T13:09:26.992Z,20.77
2023-09-08T13:12:00.473Z,20.87
2023-09-08T13:14:31.864Z,21.04
2023-09-08T13:17:02.934Z,21.13
2023-09-08T13:19:34.976Z,21.14
2023-09-08T13:22:05.415Z,21.26
2023-09-08T13:24:37.949Z,21.33
2023-09-08T13:27:09.138Z,21.40
2023-09-08T13:29:39.459Z,21.44
2023-09-08T13:32:11.308Z,21.48
2023-09-08T13:34:41.680Z,21.31
2023-09-08T13:37:12.555Z,21.17
2023-09-08T13:39:43.276Z,20.96
2023-09-08T13:42:14.687Z,20.85
2023-09-08T13:44:45.928Z,20.99
2023-09-08T13:47:16.709Z,21.11
2023-09-08T13:49:47.825Z,20.77
2023-09-08T13:52:19.757Z,20.79
2023-09-08T13:55:06.586Z,20.83
2023-09-08T13:57:43.933Z,20.85
2023-09-08T14:00:17.401Z,20.90
2023-09-08T14:02:51.189Z,20.90
2023-09-08T14:05:28.283Z,20.92
2023-09-08T14:08:07.374Z,20.89
2023-09-08T14:10:51.187Z,20.80
2023-09-08T14:13:24.115Z,20.76
2023-09-08T14:15:55.865Z,20.73
2023-09-08T14:18:26.519Z,20.69
2023-09-08T14:20:57.418Z,20.56
2023-09-08T14:23:29.384Z,20.58
2023-09-08T14:26:00.361Z,20.52
2023-09-08T14:28:31.389Z,20.45
2023-09-08T14:31:02.763Z,20.46
2023-09-08T14:33:37.171Z,20.48
2023-09-08T14:36:08.145Z,20.51
2023-09-08T14:38:38.857Z,20.41
2023-09-08T14:41:09.385Z,20.34
2023-09-08T14:43:40.914Z,20.22
2023-09-08T14:46:12.765Z,20.22
2023-09-08T14:48:43.759Z,20.21
2023-09-08T14:51:15.502Z,20.18
2023-09-08T14:53:46.592Z,20.31
2023-09-08T14:56:16.642Z,20.45
2023-09-08T14:58:47.054Z,20.28
2023-09-08T15:01:18.011Z,20.20
2023-09-08T15:03:48.513Z,20.18
2023-09-08T15:06:19.097Z,20.01
2023-09-08T15:08:50.701Z,20.05
2023-09-08T15:11:21.204Z,19.97
2023-09-08T15:13:52.845Z,19.95
2023-09-08T15:16:25.869Z,19.91
2023-09-08T15:18:58.233Z,19.95
2023-09-08T15:21:32.595Z,20.10
2023-09-08T15:24:04.975Z,20.15
2023-09-08T15:26:36.235Z,20.10
2023-09-08T15:29:07.888Z,20.18
2023-09-08T15:31:40.273Z,20.25
2023-09-08T15:34:12.261Z,20.18
2023-09-08T15:36:43.474Z,20.29
2023-09-08T15:39:15.207Z,20.39
2023-09-08T15:41:49.275Z,20.41
2023-09-08T15:44:22.600Z,20.45
2023-09-08T15:46:55.771Z,20.69
2023-09-08T15:49:26.398Z,20.85
2023-09-08T15:52:13.506Z,20.96
2023-09-08T15:54:46.963Z,20.90
2023-09-08T15:57:17.653Z,20.72
2023-09-08T15:59:49.017Z,20.68
2023-09-08T16:02:19.851Z,20.56
2023-09-08T16:04:50.600Z,20.41
2023-09-08T16:07:22.250Z,20.61
2023-09-08T16:09:53.329Z,20.73
2023-09-08T16:12:24.399Z,20.76
2023-09-08T16:14:55.155Z,20.96
2023-09-08T16:17:28.042Z,20.95
2023-09-08T16:19:58.486Z,21.04
2023-09-08T16:22:29.247Z,21.17
2023-09-08T16:25:00.568Z,21.13
2023-09-08T16:27:32.381Z,21.24
2023-09-08T16:30:03.587Z,21.33
2023-09-08T16:32:34.528Z,21.36
2023-09-08T16:35:04.892Z,21.50
2023-09-08T16:37:35.674Z,21.48
2023-09-08T16:40:05.978Z,21.62
2023-09-08T16:42:37.529Z,21.57
2023-09-08T16:45:09.176Z,21.50
2023-09-08T16:47:41.760Z,21.44
2023-09-08T16:50:13.237Z,21.61
2023-09-08T16:52:44.168Z,21.78
2023-09-08T16:55:15.030Z,21.77
2023-09-08T16:57:48.448Z,21.78
2023-09-08T17:00:19.529Z,21.80
2023-09-08T17:02:50.441Z,21.62
2023-09-08T17:05:20.682Z,21.30
2023-09-08T17:07:54.614Z,21.43
2023-09-08T17:10:25.707Z,21.57
2023-09-08T17:12:57.360Z,21.65
2023-09-08T17:15:29.144Z,21.43
2023-09-08T17:18:00.722Z,21.46
2023-09-08T17:20:33.606Z,21.46
2023-09-08T17:23:05.459Z,21.40
2023-09-08T17:25:36.046Z,21.34
2023-09-08T17:28:06.940Z,21.23
2023-09-08T17:30:37.355Z,21.33
2023-09-08T17:33:07.903Z,21.22
2023-09-08T17:35:39.758Z,21.24
2023-09-08T17:38:13.466Z,20.89
2023-09-08T17:40:44.299Z,20.64
2023-09-08T17:43:15.030Z,20.55
2023-09-08T17:45:47.823Z,20.58
2023-09-08T17:48:18.446Z,20.65
2023-09-08T17:50:51.092Z,20.65
2023-09-08T17:53:22.725Z,20.51
2023-09-08T17:55:55.490Z,20.41
2023-09-08T17:58:26.065Z,20.34
2023-09-08T18:00:57.416Z,20.21
2023-09-08T18:03:29.938Z,20.25
2023-09-08T18:06:00.756Z,20.24
2023-09-08T18:08:32.190Z,20.17
2023-09-08T18:11:08.675Z,20.14
2023-09-08T18:13:42.079Z,20.10
2023-09-08T18:16:13.017Z,20.07
2023-09-08T18:18:45.363Z,20.05
2023-09-08T18:21:17.157Z,20.10
2023-09-08T18:23:49.717Z,20.08
2023-09-08T18:26:21.033Z,20.11
2023-09-08T18:28:52.297Z,20.14
2023-09-08T18:31:24.847Z,20.13
2023-09-08T18:33:56.584Z,20.08
2023-09-08T18:36:28.077Z,20.14
2023-09-08T18:38:59.798Z,20.25
2023-09-08T18:41:30.771Z,20.39
2023-09-08T18:44:03.171Z,20.44
2023-09-08T18:46:34.101Z,20.34
2023-09-08T18:49:05.829Z,20.41
2023-09-08T18:51:36.520Z,20.44
2023-09-08T18:54:07.053Z,20.36
2023-09-08T18:56:39.857Z,20.39
2023-09-08T18:59:10.363Z,20.36
2023-09-08T19:01:41.193Z,20.38
2023-09-08T19:04:11.821Z,20.32
2023-09-08T19:06:42.155Z,20.21
2023-09-08T19:09:12.790Z,20.08
2023-09-08T19:11:43.179Z,19.98
2023-09-08T19:14:13.670Z,19.84
2023-09-08T19:16:45.502Z,19.69
2023-09-08T19:19:16.308Z,19.54
2023-09-08T19:21:46.403Z,19.47
2023-09-08T19:24:18.405Z,19.45
2023-09-08T19:26:48.974Z,19.40
2023-09-08T19:29:21.504Z,19.37
2023-09-08T19:31:53.066Z,19.30
2023-09-08T19:34:23.650Z,19.18
2023-09-08T19:36:56.957Z,19.18
2023-09-08T19:39:27.428Z,19.10
2023-09-08T19:41:59.056Z,19.08
2023-09-08T19:44:30.224Z,19.08
2023-09-08T19:47:01.204Z,18.96
2023-09-08T19:49:31.978Z,18.92
2023-09-08T19:52:02.583Z,18.84
2023-09-08T19:54:32.903Z,18.81
2023-09-08T19:57:03.487Z,18.79
2023-09-08T19:59:34.015Z,18.76
2023-09-08T20:02:04.829Z,18.71
2023-09-08T20:04:35.620Z,18.69
2023-09-08T20:07:06.710Z,18.68
2023-09-08T20:09:37.291Z,18.62
2023-09-08T20:12:07.718Z,18.59
2023-09-08T20:14:38.328Z,18.57
2023-09-08T20:17:08.840Z,18.54
2023-09-08T20:19:40.135Z,18.52
2023-09-08T20:22:11.062Z,18.49
2023-09-08T20:24:44.414Z,18.45
2023-09-08T20:27:15.057Z,18.43
2023-09-08T20:29:46.422Z,18.41
2023-09-08T20:32:16.811Z,18.38
2023-09-08T20:34:48.631Z,18.36
2023-09-08T20:37:19.884Z,18.36
2023-09-08T20:39:50.728Z,18.31
2023-09-08T20:42:22.338Z,18.30
2023-09-08T20:44:53.777Z,18.27
2023-09-08T20:47:24.845Z,18.27
2023-09-08T20:49:57.714Z,18.26
2023-09-08T20:52:28.466Z,18.21
2023-09-08T20:54:58.608Z,18.24
2023-09-08T20:57:29.613Z,18.24
2023-09-08T21:00:00.193Z,18.20
2023-09-08T21:02:30.640Z,18.17
2023-09-08T21:05:01.299Z,18.16
2023-09-08T21:07:31.852Z,18.16
2023-09-08T21:10:02.689Z,18.16
2023-09-08T21:12:33.075Z,18.13
2023-09-08T21:15:04.091Z,18.13
2023-09-08T21:17:34.750Z,18.11
2023-09-08T21:20:06.757Z,18.14
2023-09-08T21:22:38.432Z,18.18
2023-09-08T21:25:10.382Z,18.20
2023-09-08T21:27:41.808Z,18.26
2023-09-08T21:30:12.705Z,18.27
2023-09-08T21:32:43.740Z,18.37
2023-09-08T21:35:14.150Z,18.44
2023-09-08T21:37:44.532Z,18.47
2023-09-08T21:40:15.544Z,18.49
2023-09-08T21:42:46.945Z,18.51
2023-09-08T21:45:18.258Z,18.59
2023-09-08T21:47:52.945Z,18.58
2023-09-08T21:50:24.815Z,18.59
2023-09-08T21:52:55.915Z,18.65
2023-09-08T21:55:28.003Z,18.65
2023-09-08T21:57:58.648Z,18.59
2023-09-08T22:00:30.060Z,18.58
2023-09-08T22:03:01.007Z,18.52
2023-09-08T22:05:31.558Z,18.54
2023-09-08T22:08:02.675Z,18.64
2023-09-08T22:10:33.057Z,18.64
2023-09-08T22:13:03.445Z,18.67
2023-09-08T22:15:33.870Z,18.65
2023-09-08T22:18:05.593Z,18.59
2023-09-08T22:20:36.163Z,18.58
2023-09-08T22:23:06.944Z,18.54
2023-09-08T22:25:37.439Z,18.55
2023-09-08T22:28:09.731Z,18.45
2023-09-08T22:30:40.846Z,18.41
2023-09-08T22:33:11.843Z,18.36
2023-09-08T22:35:43.350Z,18.31
2023-09-08T22:38:13.969Z,18.28
2023-09-08T22:40:44.327Z,18.30
2023-09-08T22:43:14.444Z,18.26
2023-09-08T22:45:45.535Z,18.18
2023-09-08T22:48:17.230Z,18.17
2023-09-08T22:50:48.887Z,18.21
2023-09-08T22:53:20.569Z,18.31
2023-09-08T22:55:51.921Z,18.34
2023-09-08T22:58:23.061Z,18.33
2023-09-08T23:00:54.150Z,18.28
2023-09-08T23:03:25.972Z,18.27
2023-09-08T23:05:57.446Z,18.27
2023-09-08T23:08:28.320Z,18.17
2023-09-08T23:11:00.530Z,18.17
2023-09-08T23:13:31.324Z,18.13
2023-09-08T23:16:01.948Z,18.06
2023-09-08T23:18:32.750Z,18.01
2023-09-08T23:21:04.083Z,18.00
2023-09-08T23:23:37.081Z,18.00
2023-09-08T23:26:07.849Z,18.00
2023-09-08T23:28:39.234Z,18.01
2023-09-08T23:31:10.714Z,18.01
2023-09-08T23:33:42.234Z,18.10
2023-09-08T23:36:12.816Z,18.08
2023-09-08T23:38:43.770Z,18.07
2023-09-08T23:41:14.684Z,18.10
2023-09-08T23:43:44.962Z,18.06
2023-09-08T23:46:15.674Z,18.06
2023-09-08T23:48:46.461Z,18.01
2023-09-08T23:51:18.482Z,17.89
2023-09-08T23:53:49.598Z,17.86
2023-09-08T23:56:23.662Z,17.83
2023-09-08T23:58:54.226Z,17.80
